createdAt,value
2019-06-20T00:01:33.477Z,9.10
2019-06-20T00:04:02.180Z,8.27
2019-06-20T00:06:31.647Z,5.50
2019-06-20T00:09:00.337Z,6.83
2019-06-20T00:11:29.630Z,12.90
2019-06-20T00:13:59.762Z,9.93
2019-06-20T00:16:28.475Z,6.37
2019-06-20T00:18:57.174Z,7.53
2019-06-20T00:21:25.871Z,8.07
2019-06-20T00:23:54.594Z,16.00
2019-06-20T00:26:23.295Z,10.63
2019-06-20T00:28:51.921Z,5.47
2019-06-20T00:31:20.671Z,12.67
2019-06-20T00:33:49.359Z,10.30
2019-06-20T00:36:18.258Z,7.43
2019-06-20T00:38:46.993Z,7.63
2019-06-20T00:41:15.693Z,10.13
2019-06-20T00:43:44.401Z,13.23
2019-06-20T00:46:13.126Z,9.17
2019-06-20T00:48:41.823Z,6.20
2019-06-20T00:51:10.533Z,7.87
2019-06-20T00:53:39.259Z,5.10
2019-06-20T00:56:08.150Z,7.00
2019-06-20T00:58:36.841Z,8.03
2019-06-20T01:01:06.080Z,6.97
2019-06-20T01:03:34.788Z,5.90
2019-06-20T01:06:03.493Z,12.33
2019-06-20T01:08:32.340Z,8.60
2019-06-20T01:11:01.032Z,6.37
2019-06-20T01:13:34.139Z,8.13
2019-06-20T01:16:00.176Z,7.73
2019-06-20T01:18:28.861Z,6.50
2019-06-20T01:20:57.970Z,10.67
2019-06-20T01:23:26.636Z,11.73
2019-06-20T01:25:55.253Z,13.67
2019-06-20T01:28:23.958Z,9.20
2019-06-20T01:30:52.629Z,6.83
2019-06-20T01:33:21.326Z,15.43
2019-06-20T01:35:50.020Z,7.93
2019-06-20T01:38:18.765Z,13.07
2019-06-20T01:40:47.395Z,11.40
2019-06-20T01:43:16.104Z,12.43
2019-06-20T01:45:44.847Z,11.97
2019-06-20T01:48:13.519Z,9.53
2019-06-20T01:50:42.452Z,11.10
2019-06-20T01:53:11.189Z,12.97
2019-06-20T01:55:40.090Z,6.97
2019-06-20T01:58:08.770Z,10.37
2019-06-20T02:00:43.345Z,10.13
2019-06-20T02:03:12.738Z,12.20
2019-06-20T02:05:41.425Z,9.20
2019-06-20T02:08:10.210Z,23.87
2019-06-20T02:10:38.906Z,8.87
2019-06-20T02:13:07.603Z,8.30
2019-06-20T02:15:36.339Z,9.40
2019-06-20T02:18:05.634Z,10.93
2019-06-20T02:20:37.560Z,5.73
2019-06-20T02:23:06.810Z,14.90
2019-06-20T02:25:35.633Z,12.50
2019-06-20T02:28:04.528Z,12.67
2019-06-20T02:30:33.299Z,8.03
2019-06-20T02:33:02.011Z,12.70
2019-06-20T02:35:30.708Z,13.67
2019-06-20T02:37:59.368Z,9.37
2019-06-20T02:40:28.001Z,13.17
2019-06-20T02:42:56.719Z,15.70
2019-06-20T02:45:25.450Z,13.50
2019-06-20T02:47:54.063Z,12.77
2019-06-20T02:50:22.754Z,9.70
2019-06-20T02:52:51.511Z,13.80
2019-06-20T02:55:20.314Z,13.87
2019-06-20T02:57:49.021Z,9.63
2019-06-20T03:00:23.425Z,10.63
2019-06-20T03:02:52.140Z,14.27
2019-06-20T03:05:20.766Z,7.20
2019-06-20T03:07:49.511Z,9.70
2019-06-20T03:10:18.313Z,9.80
2019-06-20T03:12:47.006Z,7.20
2019-06-20T03:15:15.843Z,13.10
2019-06-20T03:17:44.540Z,11.67
2019-06-20T03:20:13.243Z,13.50
2019-06-20T03:22:41.972Z,7.63
2019-06-20T03:25:12.113Z,8.23
2019-06-20T03:27:40.805Z,8.83
2019-06-20T03:30:10.028Z,11.17
2019-06-20T03:32:38.720Z,12.73
2019-06-20T03:35:07.618Z,7.13
2019-06-20T03:37:36.746Z,7.37
2019-06-20T03:40:06.351Z,7.07
2019-06-20T03:42:34.978Z,7.23
2019-06-20T03:45:04.015Z,8.60
2019-06-20T03:47:32.725Z,9.73
2019-06-20T03:50:01.414Z,6.63
2019-06-20T03:52:30.149Z,9.30
2019-06-20T03:54:58.865Z,8.57
2019-06-20T03:57:27.553Z,8.37
2019-06-20T03:59:56.297Z,12.80
2019-06-20T04:02:24.986Z,9.43
2019-06-20T04:04:53.687Z,10.40
2019-06-20T04:07:22.419Z,16.83
2019-06-20T04:09:51.121Z,9.00
2019-06-20T04:12:19.832Z,10.27
2019-06-20T04:14:49.233Z,15.00
2019-06-20T04:17:18.010Z,17.23
2019-06-20T04:19:46.663Z,11.13
2019-06-20T04:22:15.391Z,13.37
2019-06-20T04:24:44.088Z,10.03
2019-06-20T04:27:12.779Z,12.70
2019-06-20T04:29:41.504Z,8.90
2019-06-20T04:32:10.203Z,10.13
2019-06-20T04:34:38.894Z,7.20
2019-06-20T04:37:07.542Z,8.73
2019-06-20T04:39:36.239Z,8.03
2019-06-20T04:42:04.942Z,10.23
2019-06-20T04:44:33.669Z,12.73
2019-06-20T04:47:09.703Z,18.70
2019-06-20T04:49:38.386Z,13.80
2019-06-20T04:52:07.175Z,11.90
2019-06-20T04:54:35.867Z,11.43
2019-06-20T04:57:04.638Z,16.00
2019-06-20T04:59:33.267Z,12.27
2019-06-20T05:02:01.957Z,16.93
2019-06-20T05:04:30.700Z,16.27
2019-06-20T05:07:08.054Z,15.53
2019-06-20T05:09:36.772Z,17.37
2019-06-20T05:12:05.467Z,13.17
2019-06-20T05:14:34.095Z,14.97
2019-06-20T05:17:07.029Z,14.53
2019-06-20T05:19:33.630Z,15.43
2019-06-20T05:22:02.341Z,17.97
2019-06-20T05:24:31.063Z,12.80
2019-06-20T05:26:59.770Z,15.70
2019-06-20T05:29:28.464Z,16.00
2019-06-20T05:31:57.184Z,13.60
2019-06-20T05:34:25.896Z,16.70
2019-06-20T05:36:54.597Z,18.43
2019-06-20T05:39:23.330Z,17.50
2019-06-20T05:41:52.038Z,19.07
2019-06-20T05:44:20.737Z,20.47
2019-06-20T05:46:49.398Z,15.70
2019-06-20T05:49:19.043Z,17.17
2019-06-20T05:51:47.778Z,14.50
2019-06-20T05:54:16.439Z,17.23
2019-06-20T05:56:45.130Z,17.43
2019-06-20T05:59:13.759Z,21.30
2019-06-20T06:01:42.490Z,19.43
2019-06-20T06:04:11.196Z,17.80
2019-06-20T06:06:39.890Z,19.43
2019-06-20T06:09:09.579Z,24.97
2019-06-20T06:11:38.337Z,20.97
2019-06-20T06:14:07.043Z,21.50
2019-06-20T06:16:35.770Z,18.30
2019-06-20T06:19:04.467Z,20.63
2019-06-20T06:21:33.164Z,19.37
2019-06-20T06:24:01.910Z,17.33
2019-06-20T06:26:30.599Z,21.20
2019-06-20T06:28:59.241Z,17.93
2019-06-20T06:31:27.966Z,19.17
2019-06-20T06:33:56.665Z,17.00
2019-06-20T06:36:25.359Z,18.73
2019-06-20T06:38:54.087Z,16.97
2019-06-20T06:41:22.780Z,19.10
2019-06-20T06:43:51.457Z,14.63
2019-06-20T06:46:20.157Z,23.87
2019-06-20T06:48:48.870Z,26.27
2019-06-20T06:51:17.556Z,20.13
2019-06-20T06:53:46.283Z,18.23
2019-06-20T06:56:14.983Z,22.53
2019-06-20T06:58:43.619Z,20.53
2019-06-20T07:01:12.315Z,25.87
2019-06-20T07:03:40.975Z,25.83
2019-06-20T07:06:09.685Z,24.43
2019-06-20T07:08:38.405Z,21.80
2019-06-20T07:11:07.133Z,24.17
2019-06-20T07:13:35.763Z,27.53
2019-06-20T07:16:04.925Z,21.50
2019-06-20T07:18:33.562Z,24.20
2019-06-20T07:21:02.228Z,22.63
2019-06-20T07:23:30.967Z,23.43
2019-06-20T07:25:59.666Z,23.67
2019-06-20T07:28:28.290Z,21.93
2019-06-20T07:30:56.957Z,23.27
2019-06-20T07:33:25.654Z,25.97
2019-06-20T07:35:54.358Z,25.17
2019-06-20T07:38:25.172Z,18.97
2019-06-20T07:40:53.790Z,21.43
2019-06-20T07:43:22.583Z,25.17
2019-06-20T07:46:02.194Z,21.93
2019-06-20T07:48:21.590Z,27.50
2019-06-20T07:50:50.294Z,17.70
2019-06-20T07:53:19.030Z,16.70
2019-06-20T07:55:47.736Z,22.83
2019-06-20T07:58:16.345Z,18.23
2019-06-20T08:00:45.065Z,17.27
2019-06-20T08:03:13.762Z,25.80
2019-06-20T08:05:42.455Z,25.67
2019-06-20T08:08:11.117Z,18.93
2019-06-20T08:10:39.808Z,16.87
2019-06-20T08:13:08.432Z,22.87
2019-06-20T08:15:37.166Z,18.13
2019-06-20T08:18:06.257Z,17.90
2019-06-20T08:20:34.957Z,17.10
2019-06-20T08:23:04.464Z,20.33
2019-06-20T08:25:33.078Z,12.67
2019-06-20T08:28:02.421Z,14.37
2019-06-20T08:30:35.492Z,16.27
2019-06-20T08:33:09.909Z,17.43
2019-06-20T08:35:34.852Z,15.93
2019-06-20T08:38:05.481Z,16.03
2019-06-20T08:40:36.371Z,15.17
2019-06-20T08:43:06.252Z,13.10
2019-06-20T08:45:35.688Z,13.60
2019-06-20T08:48:04.886Z,20.20
2019-06-20T08:50:33.576Z,12.60
2019-06-20T08:53:03.541Z,15.03
2019-06-20T08:55:32.243Z,11.80
2019-06-20T08:58:01.604Z,13.10
2019-06-20T09:00:32.818Z,14.93
2019-06-20T09:05:30.965Z,11.73
2019-06-20T09:10:35.760Z,12.30
2019-06-20T09:13:04.568Z,8.30
2019-06-20T09:15:33.237Z,17.30
2019-06-20T09:18:02.910Z,11.90
2019-06-20T09:20:31.657Z,11.03
2019-06-20T09:23:01.037Z,14.30
2019-06-20T09:25:30.456Z,10.03
2019-06-20T09:28:00.466Z,7.97
2019-06-20T09:30:29.906Z,10.40
2019-06-20T09:32:59.955Z,8.90
2019-06-20T09:35:28.605Z,11.87
2019-06-20T09:37:57.238Z,8.67
2019-06-20T09:40:25.954Z,7.07
2019-06-20T09:42:54.603Z,8.37
2019-06-20T09:45:23.386Z,10.87
2019-06-20T09:47:52.283Z,8.77
2019-06-20T09:50:21.850Z,10.60
2019-06-20T09:52:51.575Z,12.87
2019-06-20T09:55:20.986Z,10.83
2019-06-20T09:57:50.776Z,9.37
2019-06-20T10:00:23.150Z,8.77
2019-06-20T10:02:52.437Z,9.77
2019-06-20T10:05:22.207Z,8.10
2019-06-20T10:07:52.301Z,10.83
2019-06-20T10:10:22.618Z,20.67
2019-06-20T10:12:51.764Z,10.43
2019-06-20T10:15:26.149Z,11.50
2019-06-20T10:17:55.038Z,12.10
2019-06-20T10:20:25.625Z,9.33
2019-06-20T10:22:54.559Z,10.37
2019-06-20T10:25:23.252Z,12.50
2019-06-20T10:27:53.289Z,11.20
2019-06-20T10:30:24.370Z,12.93
2019-06-20T10:32:53.307Z,15.77
2019-06-20T10:35:23.258Z,12.57
2019-06-20T10:37:53.025Z,7.93
2019-06-20T10:40:23.408Z,10.27
2019-06-20T10:42:52.922Z,9.33
2019-06-20T10:45:24.461Z,10.07
2019-06-20T10:47:53.900Z,13.77
2019-06-20T10:50:22.659Z,16.50
2019-06-20T10:52:51.927Z,11.90
2019-06-20T10:55:21.783Z,10.07
2019-06-20T10:57:51.699Z,11.40
2019-06-20T11:00:30.780Z,11.03
2019-06-20T11:02:53.764Z,10.47
2019-06-20T11:05:23.358Z,17.03
2019-06-20T11:07:52.022Z,12.93
2019-06-20T11:10:21.550Z,12.17
2019-06-20T11:12:55.667Z,14.13
2019-06-20T11:15:21.424Z,21.27
2019-06-20T11:17:50.115Z,14.30
2019-06-20T11:20:19.037Z,17.13
2019-06-20T11:22:48.115Z,16.47
2019-06-20T11:25:19.279Z,8.53
2019-06-20T11:27:47.775Z,13.50
2019-06-20T11:30:22.295Z,14.03
2019-06-20T11:32:50.910Z,10.07
2019-06-20T11:35:19.528Z,11.10
2019-06-20T11:37:48.181Z,8.23
2019-06-20T11:40:17.568Z,7.43
2019-06-20T11:42:46.908Z,8.40
2019-06-20T11:45:17.971Z,7.93
2019-06-20T11:47:47.352Z,7.87
2019-06-20T11:50:16.353Z,9.33
2019-06-20T11:52:45.892Z,12.47
2019-06-20T11:55:15.881Z,8.47
2019-06-20T11:57:44.565Z,16.40
2019-06-20T12:00:13.906Z,7.97
2019-06-20T12:02:44.084Z,5.83
2019-06-20T12:05:14.846Z,5.73
2019-06-20T12:07:45.416Z,8.47
2019-06-20T12:10:15.780Z,5.90
2019-06-20T12:12:44.788Z,6.57
2019-06-20T12:15:13.971Z,4.87
2019-06-20T12:17:43.418Z,7.30
2019-06-20T12:20:14.844Z,5.80
2019-06-20T12:22:44.932Z,6.20
2019-06-20T12:25:14.057Z,11.87
2019-06-20T12:27:43.112Z,10.93
2019-06-20T12:30:13.746Z,10.20
2019-06-20T12:32:42.592Z,6.60
2019-06-20T12:35:12.640Z,7.00
2019-06-20T12:37:42.581Z,7.53
2019-06-20T12:43:52.197Z,7.80
2019-06-20T12:46:20.890Z,8.90
2019-06-20T12:48:49.602Z,10.07
2019-06-20T12:51:18.263Z,7.97
2019-06-20T12:53:46.958Z,7.37
2019-06-20T12:56:15.656Z,6.70
2019-06-20T12:58:44.538Z,13.73
2019-06-20T13:01:13.181Z,7.67
2019-06-20T13:03:42.809Z,8.80
2019-06-20T13:06:11.620Z,14.37
2019-06-20T13:08:41.931Z,8.67
2019-06-20T13:11:10.658Z,12.57
2019-06-20T13:13:40.572Z,11.83
2019-06-20T13:16:09.267Z,9.30
2019-06-20T13:18:37.969Z,13.67
2019-06-20T13:21:06.704Z,9.73
2019-06-20T13:23:35.388Z,8.87
2019-06-20T13:26:04.091Z,12.83
2019-06-20T13:28:32.814Z,17.43
2019-06-20T13:31:01.501Z,14.50
2019-06-20T13:33:30.148Z,11.17
2019-06-20T13:35:58.874Z,11.40
2019-06-20T13:38:27.571Z,13.17
2019-06-20T13:40:56.202Z,6.50
2019-06-20T13:43:24.923Z,6.70
2019-06-20T13:45:54.236Z,7.80
2019-06-20T13:48:22.981Z,7.10
2019-06-20T13:50:51.744Z,9.03
2019-06-20T13:53:20.429Z,10.30
2019-06-20T13:55:50.279Z,11.43
2019-06-20T13:58:19.104Z,10.37
2019-06-20T14:00:47.948Z,16.60
2019-06-20T14:03:16.646Z,11.07
2019-06-20T14:05:45.509Z,6.77
2019-06-20T14:08:14.091Z,8.60
2019-06-20T14:10:44.101Z,8.57
2019-06-20T14:13:19.197Z,10.87
2019-06-20T14:15:44.465Z,5.63
2019-06-20T14:18:13.967Z,7.30
2019-06-20T14:20:44.575Z,8.17
2019-06-20T14:23:13.110Z,11.30
2019-06-20T14:25:42.446Z,9.83
2019-06-20T14:28:12.252Z,4.23
2019-06-20T14:30:40.949Z,5.20
2019-06-20T14:33:09.630Z,8.97
2019-06-20T14:35:38.294Z,8.33
2019-06-20T14:38:06.986Z,5.97
2019-06-20T14:40:35.667Z,7.37
2019-06-20T14:43:04.341Z,6.00
2019-06-20T14:45:33.035Z,4.63
2019-06-20T14:48:01.721Z,4.47
2019-06-20T14:50:30.455Z,5.77
2019-06-20T14:52:59.149Z,7.83
2019-06-20T14:55:27.843Z,8.73
2019-06-20T14:57:56.507Z,4.90
2019-06-20T15:00:26.763Z,5.73
2019-06-20T15:02:58.304Z,7.33
2019-06-20T15:05:25.838Z,9.10
2019-06-20T15:07:55.898Z,10.53
2019-06-20T15:10:24.744Z,6.30
2019-06-20T15:12:54.189Z,5.50
2019-06-20T15:15:24.080Z,5.37
2019-06-20T15:17:55.360Z,9.43
2019-06-20T15:20:23.178Z,6.47
2019-06-20T15:22:52.725Z,8.10
2019-06-20T15:25:21.556Z,13.40
2019-06-20T15:27:53.152Z,9.90
2019-06-20T15:30:20.784Z,5.23
2019-06-20T15:33:01.199Z,9.53
2019-06-20T15:35:19.959Z,6.83
2019-06-20T15:37:50.207Z,8.00
2019-06-20T15:40:19.776Z,6.30
2019-06-20T15:42:49.611Z,7.13
2019-06-20T15:45:19.108Z,11.37
2019-06-20T15:47:47.801Z,8.57
2019-06-20T15:50:16.655Z,6.37
2019-06-20T15:52:45.347Z,5.43
2019-06-20T15:55:17.167Z,6.93
2019-06-20T15:57:45.909Z,9.63
2019-06-20T16:00:16.336Z,8.50
2019-06-20T16:02:45.033Z,11.00
2019-06-20T16:05:13.876Z,8.33
2019-06-20T16:07:42.563Z,6.73
2019-06-20T16:10:11.962Z,10.83
2019-06-20T16:12:40.689Z,9.87
2019-06-20T16:15:10.501Z,8.90
2019-06-20T16:17:39.125Z,7.17
2019-06-20T16:20:07.935Z,8.93
2019-06-20T16:22:36.548Z,4.67
2019-06-20T16:25:06.137Z,9.87
2019-06-20T16:27:34.866Z,7.57
2019-06-20T16:30:05.030Z,5.60
2019-06-20T16:32:33.720Z,7.70
2019-06-20T16:35:02.443Z,8.47
2019-06-20T16:37:31.370Z,10.23
2019-06-20T16:40:00.074Z,12.73
2019-06-20T16:42:28.728Z,9.23
2019-06-20T16:44:57.420Z,6.33
2019-06-20T16:47:26.140Z,4.67
2019-06-20T16:49:54.904Z,6.77
2019-06-20T16:52:23.607Z,6.10
2019-06-20T16:54:52.290Z,7.40
2019-06-20T16:57:21.044Z,6.00
2019-06-20T16:59:49.651Z,4.63
2019-06-20T17:02:18.337Z,4.73
2019-06-20T17:04:47.077Z,7.07
2019-06-20T17:07:15.774Z,6.57
2019-06-20T17:09:44.463Z,9.97
2019-06-20T17:12:13.200Z,12.67
2019-06-20T17:14:41.896Z,15.37
2019-06-20T17:17:10.522Z,7.20
2019-06-20T17:19:42.070Z,7.47
2019-06-20T17:22:09.689Z,11.27
2019-06-20T17:24:38.394Z,9.00
2019-06-20T17:27:07.127Z,8.83
2019-06-20T17:29:35.820Z,9.87
2019-06-20T17:32:04.588Z,5.90
2019-06-20T17:34:33.288Z,8.73
2019-06-20T17:37:01.990Z,5.43
2019-06-20T17:39:30.627Z,10.87
2019-06-20T17:41:59.586Z,7.73
2019-06-20T17:44:28.290Z,12.00
2019-06-20T17:46:56.915Z,9.97
2019-06-20T17:49:25.689Z,10.17
2019-06-20T17:51:54.381Z,11.47
2019-06-20T17:54:23.066Z,9.47
2019-06-20T17:56:51.796Z,10.17
2019-06-20T17:59:22.815Z,9.40
2019-06-20T18:01:50.915Z,7.13
2019-06-20T18:04:19.667Z,9.87
2019-06-20T18:06:48.357Z,10.57
2019-06-20T18:09:17.049Z,12.10
2019-06-20T18:11:45.793Z,10.17
2019-06-20T18:14:14.487Z,10.23
2019-06-20T18:16:43.188Z,7.17
2019-06-20T18:19:11.858Z,7.77
2019-06-20T18:21:40.553Z,6.43
2019-06-20T18:24:09.271Z,10.93
2019-06-20T18:26:37.928Z,13.70
2019-06-20T18:29:06.624Z,9.73
2019-06-20T18:31:35.361Z,12.20
2019-06-20T18:34:04.134Z,14.20
2019-06-20T18:36:32.917Z,11.63
2019-06-20T18:39:02.864Z,16.77
2019-06-20T18:41:31.607Z,9.47
2019-06-20T18:44:00.308Z,11.57
2019-06-20T18:46:29.013Z,10.53
2019-06-20T18:48:57.753Z,9.80
2019-06-20T18:51:26.469Z,8.50
2019-06-20T18:53:55.165Z,8.47
2019-06-20T18:56:23.906Z,10.87
2019-06-20T18:58:52.606Z,7.60
2019-06-20T19:01:21.305Z,7.80
2019-06-20T19:03:50.042Z,11.07
2019-06-20T19:06:34.828Z,8.60
2019-06-20T19:08:49.173Z,7.47
2019-06-20T19:11:17.908Z,8.30
2019-06-20T19:13:46.610Z,7.77
2019-06-20T19:16:15.321Z,11.37
2019-06-20T19:18:44.074Z,8.77
2019-06-20T19:21:12.768Z,7.17
2019-06-20T19:23:41.468Z,7.77
2019-06-20T19:26:10.472Z,6.10
2019-06-20T19:28:39.194Z,8.30
2019-06-20T19:31:07.885Z,9.87
2019-06-20T19:33:36.628Z,7.80
2019-06-20T19:36:05.483Z,9.63
2019-06-20T19:38:34.233Z,5.47
2019-06-20T19:41:03.002Z,11.10
2019-06-20T19:43:31.693Z,11.17
2019-06-20T19:46:00.401Z,6.67
2019-06-20T19:48:29.127Z,7.37
2019-06-20T19:50:57.851Z,6.47
2019-06-20T19:53:26.576Z,8.07
2019-06-20T19:55:55.347Z,7.47
2019-06-20T19:58:23.980Z,6.93
2019-06-20T20:00:52.670Z,6.30
2019-06-20T20:03:21.504Z,6.57
2019-06-20T20:05:50.194Z,9.53
2019-06-20T20:08:18.890Z,7.80
2019-06-20T20:10:49.394Z,6.27
2019-06-20T20:13:18.488Z,7.40
2019-06-20T20:15:47.587Z,8.17
2019-06-20T20:18:16.719Z,10.90
2019-06-20T20:20:47.673Z,10.63
2019-06-20T20:23:16.584Z,12.60
2019-06-20T20:25:45.266Z,10.63
2019-06-20T20:28:13.953Z,9.30
2019-06-20T20:30:42.638Z,6.47
2019-06-20T20:33:11.475Z,7.17
2019-06-20T20:35:40.095Z,9.13
2019-06-20T20:38:08.788Z,7.77
2019-06-20T20:40:37.520Z,10.83
2019-06-20T20:43:06.212Z,11.27
2019-06-20T20:45:34.828Z,7.07
2019-06-20T20:48:03.561Z,11.10
2019-06-20T20:50:32.223Z,9.50
2019-06-20T20:53:00.846Z,9.23
2019-06-20T20:55:29.599Z,10.63
2019-06-20T20:57:58.287Z,12.23
2019-06-20T21:00:35.713Z,10.30
2019-06-20T21:03:07.340Z,9.47
2019-06-20T21:05:47.614Z,12.93
2019-06-20T21:08:05.343Z,20.77
2019-06-20T21:10:34.036Z,12.47
2019-06-20T21:13:02.727Z,13.67
2019-06-20T21:15:31.395Z,9.33
2019-06-20T21:18:00.018Z,11.67
2019-06-20T21:20:28.711Z,9.37
2019-06-20T21:22:57.437Z,7.10
2019-06-20T21:25:26.061Z,8.27
2019-06-20T21:27:54.759Z,8.07
2019-06-20T21:30:24.704Z,10.73
2019-06-20T21:32:53.409Z,13.03
2019-06-20T21:35:22.097Z,8.30
2019-06-20T21:37:50.815Z,11.23
2019-06-20T21:40:19.444Z,14.07
2019-06-20T21:42:48.059Z,11.40
2019-06-20T21:45:16.987Z,8.03
2019-06-20T21:47:45.667Z,10.07
2019-06-20T21:50:14.387Z,9.50
2019-06-20T21:52:43.106Z,7.17
2019-06-20T21:55:11.917Z,14.07
2019-06-20T21:57:40.623Z,8.40
2019-06-20T22:00:31.922Z,9.73
2019-06-20T22:03:00.609Z,12.57
2019-06-20T22:05:29.297Z,8.93
2019-06-20T22:07:58.037Z,8.10
2019-06-20T22:10:26.668Z,16.03
2019-06-20T22:12:55.361Z,9.10
2019-06-20T22:15:24.111Z,6.17
2019-06-20T22:17:52.726Z,11.20
2019-06-20T22:20:21.531Z,6.57
2019-06-20T22:22:50.192Z,8.53
2019-06-20T22:25:18.981Z,9.37
2019-06-20T22:27:47.659Z,8.63
2019-06-20T22:30:17.080Z,7.50
2019-06-20T22:32:45.769Z,9.97
2019-06-20T22:35:14.772Z,12.73
2019-06-20T22:37:43.442Z,6.93
2019-06-20T22:40:12.562Z,6.37
2019-06-20T22:42:41.180Z,16.13
2019-06-20T22:45:10.611Z,6.50
2019-06-20T22:47:39.302Z,8.50
2019-06-20T22:50:08.937Z,7.10
2019-06-20T22:52:37.660Z,6.73
2019-06-20T22:55:06.957Z,5.20
2019-06-20T22:57:35.578Z,6.47
2019-06-20T23:00:07.217Z,6.17
2019-06-20T23:02:35.913Z,6.30
2019-06-20T23:05:05.610Z,7.63
2019-06-20T23:07:34.342Z,6.97
2019-06-20T23:10:10.640Z,8.67
2019-06-20T23:12:33.488Z,10.20
2019-06-20T23:15:02.205Z,7.00
2019-06-20T23:17:30.902Z,6.00
2019-06-20T23:19:59.531Z,6.87
2019-06-20T23:22:31.037Z,5.20
2019-06-20T23:24:59.745Z,8.90
2019-06-20T23:27:28.429Z,6.90
2019-06-20T23:29:57.164Z,9.77
2019-06-20T23:32:25.853Z,8.30
2019-06-20T23:34:54.494Z,10.13
2019-06-20T23:37:23.137Z,8.73
2019-06-20T23:39:51.827Z,8.60
2019-06-20T23:42:20.520Z,7.23
2019-06-20T23:44:49.243Z,9.90
2019-06-20T23:47:17.928Z,8.33
2019-06-20T23:49:49.791Z,9.33
2019-06-20T23:52:23.056Z,11.00
2019-06-20T23:54:51.697Z,8.97
2019-06-20T23:57:20.376Z,6.57
2019-06-20T23:59:49.107Z,13.80
